sensor_id;sensor_type;location;lat;lon;timestamp;P1;durP1;ratioP1;P2;durP2;ratioP2
3068;SDS011;1545;51.728;8.796;2023-01-29T00:02:15;93.30;;;39.13;;
3068;SDS011;1545;51.728;8.796;2023-01-29T00:04:41;95.20;;;40.77;;
3068;SDS011;1545;51.728;8.796;2023-01-29T00:07:06;101.97;;;41.23;;
3068;SDS011;1545;51.728;8.796;2023-01-29T00:09:32;105.33;;;41.03;;
3068;SDS011;1545;51.728;8.796;2023-01-29T00:11:58;110.30;;;42.73;;
3068;SDS011;1545;51.728;8.796;2023-01-29T00:14:23;103.20;;;40.77;;
3068;SDS011;1545;51.728;8.796;2023-01-29T00:16:51;98.73;;;40.30;;
3068;SDS011;1545;51.728;8.796;2023-01-29T00:19:16;105.60;;;40.90;;
3068;SDS011;1545;51.728;8.796;2023-01-29T00:21:43;96.57;;;40.23;;
3068;SDS011;1545;51.728;8.796;2023-01-29T00:24:09;90.60;;;38.20;;
3068;SDS011;1545;51.728;8.796;2023-01-29T00:26:35;98.00;;;39.27;;
3068;SDS011;1545;51.728;8.796;2023-01-29T00:29:02;94.40;;;40.67;;
3068;SDS011;1545;51.728;8.796;2023-01-29T00:31:28;105.97;;;40.93;;
3068;SDS011;1545;51.728;8.796;2023-01-29T00:33:54;97.63;;;39.10;;
3068;SDS011;1545;51.728;8.796;2023-01-29T00:36:20;96.93;;;40.63;;
3068;SDS011;1545;51.728;8.796;2023-01-29T00:38:46;97.53;;;39.10;;
3068;SDS011;1545;51.728;8.796;2023-01-29T00:41:18;100.30;;;41.77;;
3068;SDS011;1545;51.728;8.796;2023-01-29T00:44:04;108.57;;;42.23;;
3068;SDS011;1545;51.728;8.796;2023-01-29T00:46:48;101.53;;;41.97;;
3068;SDS011;1545;51.728;8.796;2023-01-29T00:49:14;105.43;;;41.83;;
3068;SDS011;1545;51.728;8.796;2023-01-29T00:51:39;102.93;;;41.73;;
3068;SDS011;1545;51.728;8.796;2023-01-29T00:54:05;105.33;;;42.53;;
3068;SDS011;1545;51.728;8.796;2023-01-29T00:56:31;108.63;;;42.33;;
3068;SDS011;1545;51.728;8.796;2023-01-29T00:59:01;106.37;;;41.13;;
3068;SDS011;1545;51.728;8.796;2023-01-29T01:01:27;106.90;;;41.63;;
3068;SDS011;1545;51.728;8.796;2023-01-29T01:04:24;108.83;;;43.07;;
3068;SDS011;1545;51.728;8.796;2023-01-29T01:06:50;112.00;;;45.23;;
3068;SDS011;1545;51.728;8.796;2023-01-29T01:09:15;112.17;;;42.27;;
3068;SDS011;1545;51.728;8.796;2023-01-29T01:11:59;108.07;;;43.00;;
3068;SDS011;1545;51.728;8.796;2023-01-29T01:14:25;117.33;;;42.70;;
3068;SDS011;1545;51.728;8.796;2023-01-29T01:16:50;108.30;;;42.20;;
3068;SDS011;1545;51.728;8.796;2023-01-29T01:19:16;108.33;;;42.33;;
3068;SDS011;1545;51.728;8.796;2023-01-29T01:21:41;118.67;;;43.10;;
3068;SDS011;1545;51.728;8.796;2023-01-29T01:24:12;116.27;;;43.20;;
3068;SDS011;1545;51.728;8.796;2023-01-29T01:26:37;108.37;;;42.07;;
3068;SDS011;1545;51.728;8.796;2023-01-29T01:29:03;112.50;;;42.77;;
3068;SDS011;1545;51.728;8.796;2023-01-29T01:31:29;116.00;;;43.57;;
3068;SDS011;1545;51.728;8.796;2023-01-29T01:33:54;116.50;;;43.33;;
3068;SDS011;1545;51.728;8.796;2023-01-29T01:36:20;106.77;;;43.17;;
3068;SDS011;1545;51.728;8.796;2023-01-29T01:38:46;113.60;;;44.07;;
3068;SDS011;1545;51.728;8.796;2023-01-29T01:41:12;122.67;;;44.07;;
3068;SDS011;1545;51.728;8.796;2023-01-29T01:46:20;125.10;;;46.27;;
3068;SDS011;1545;51.728;8.796;2023-01-29T01:48:47;118.00;;;44.77;;
3068;SDS011;1545;51.728;8.796;2023-01-29T01:51:17;121.77;;;45.60;;
3068;SDS011;1545;51.728;8.796;2023-01-29T01:53:51;122.33;;;45.90;;
3068;SDS011;1545;51.728;8.796;2023-01-29T01:56:24;127.00;;;46.53;;
3068;SDS011;1545;51.728;8.796;2023-01-29T01:59:04;125.00;;;46.57;;
3068;SDS011;1545;51.728;8.796;2023-01-29T02:01:35;116.70;;;46.03;;
3068;SDS011;1545;51.728;8.796;2023-01-29T02:04:06;123.57;;;46.43;;
3068;SDS011;1545;51.728;8.796;2023-01-29T02:06:53;119.77;;;45.37;;
3068;SDS011;1545;51.728;8.796;2023-01-29T02:09:45;122.43;;;44.83;;
3068;SDS011;1545;51.728;8.796;2023-01-29T02:12:16;113.33;;;46.20;;
3068;SDS011;1545;51.728;8.796;2023-01-29T02:14:42;122.57;;;45.80;;
3068;SDS011;1545;51.728;8.796;2023-01-29T02:17:09;110.70;;;43.97;;
3068;SDS011;1545;51.728;8.796;2023-01-29T02:19:46;116.87;;;45.40;;
3068;SDS011;1545;51.728;8.796;2023-01-29T02:28:44;104.70;;;42.53;;
3068;SDS011;1545;51.728;8.796;2023-01-29T02:31:31;125.03;;;44.60;;
3068;SDS011;1545;51.728;8.796;2023-01-29T02:34:10;96.97;;;41.23;;
3068;SDS011;1545;51.728;8.796;2023-01-29T02:37:20;109.90;;;42.93;;
3068;SDS011;1545;51.728;8.796;2023-01-29T02:40:18;104.07;;;43.63;;
3068;SDS011;1545;51.728;8.796;2023-01-29T02:43:29;104.73;;;42.60;;
3068;SDS011;1545;51.728;8.796;2023-01-29T02:46:15;104.17;;;42.13;;
3068;SDS011;1545;51.728;8.796;2023-01-29T02:54:29;101.70;;;41.43;;
3068;SDS011;1545;51.728;8.796;2023-01-29T02:57:04;96.00;;;39.30;;
3068;SDS011;1545;51.728;8.796;2023-01-29T02:59:42;95.10;;;41.77;;
3068;SDS011;1545;51.728;8.796;2023-01-29T03:02:21;103.53;;;42.20;;
3068;SDS011;1545;51.728;8.796;2023-01-29T03:04:56;98.13;;;41.30;;
3068;SDS011;1545;51.728;8.796;2023-01-29T03:07:26;95.93;;;40.93;;
3068;SDS011;1545;51.728;8.796;2023-01-29T03:12:45;91.87;;;40.53;;
3068;SDS011;1545;51.728;8.796;2023-01-29T03:15:19;100.00;;;41.57;;
3068;SDS011;1545;51.728;8.796;2023-01-29T03:20:22;105.30;;;41.47;;
3068;SDS011;1545;51.728;8.796;2023-01-29T03:23:01;109.93;;;44.17;;
3068;SDS011;1545;51.728;8.796;2023-01-29T03:25:32;108.93;;;44.47;;
3068;SDS011;1545;51.728;8.796;2023-01-29T03:28:18;101.83;;;43.20;;
3068;SDS011;1545;51.728;8.796;2023-01-29T03:31:05;104.13;;;42.67;;
3068;SDS011;1545;51.728;8.796;2023-01-29T03:33:58;101.77;;;43.23;;
3068;SDS011;1545;51.728;8.796;2023-01-29T03:36:36;102.27;;;42.47;;
3068;SDS011;1545;51.728;8.796;2023-01-29T03:39:09;95.03;;;41.77;;
3068;SDS011;1545;51.728;8.796;2023-01-29T03:41:37;90.47;;;40.07;;
3068;SDS011;1545;51.728;8.796;2023-01-29T03:44:13;94.17;;;39.03;;
3068;SDS011;1545;51.728;8.796;2023-01-29T03:46:56;93.47;;;40.27;;
3068;SDS011;1545;51.728;8.796;2023-01-29T03:49:36;93.07;;;39.63;;
3068;SDS011;1545;51.728;8.796;2023-01-29T03:52:40;98.43;;;40.50;;
3068;SDS011;1545;51.728;8.796;2023-01-29T03:55:35;101.07;;;39.33;;
3068;SDS011;1545;51.728;8.796;2023-01-29T03:58:11;96.23;;;39.53;;
3068;SDS011;1545;51.728;8.796;2023-01-29T04:00:54;97.07;;;40.70;;
3068;SDS011;1545;51.728;8.796;2023-01-29T04:03:34;100.10;;;39.57;;
3068;SDS011;1545;51.728;8.796;2023-01-29T04:06:06;98.20;;;41.23;;
3068;SDS011;1545;51.728;8.796;2023-01-29T04:08:34;96.90;;;41.03;;
3068;SDS011;1545;51.728;8.796;2023-01-29T04:11:11;95.07;;;39.97;;
3068;SDS011;1545;51.728;8.796;2023-01-29T04:13:40;92.60;;;39.83;;
3068;SDS011;1545;51.728;8.796;2023-01-29T04:16:07;96.80;;;41.87;;
3068;SDS011;1545;51.728;8.796;2023-01-29T04:18:36;87.93;;;41.10;;
3068;SDS011;1545;51.728;8.796;2023-01-29T04:21:02;98.73;;;43.17;;
3068;SDS011;1545;51.728;8.796;2023-01-29T04:23:31;90.97;;;42.10;;
3068;SDS011;1545;51.728;8.796;2023-01-29T04:31:33;86.73;;;40.87;;
3068;SDS011;1545;51.728;8.796;2023-01-29T04:34:11;87.43;;;41.70;;
3068;SDS011;1545;51.728;8.796;2023-01-29T04:39:48;86.97;;;41.03;;
3068;SDS011;1545;51.728;8.796;2023-01-29T04:42:53;89.93;;;41.70;;
3068;SDS011;1545;51.728;8.796;2023-01-29T04:45:26;86.70;;;39.90;;
3068;SDS011;1545;51.728;8.796;2023-01-29T04:56:40;81.57;;;40.90;;
3068;SDS011;1545;51.728;8.796;2023-01-29T04:59:13;88.23;;;41.87;;
3068;SDS011;1545;51.728;8.796;2023-01-29T05:01:43;85.57;;;38.93;;
3068;SDS011;1545;51.728;8.796;2023-01-29T05:04:10;87.27;;;41.17;;
3068;SDS011;1545;51.728;8.796;2023-01-29T05:06:38;82.20;;;39.43;;
3068;SDS011;1545;51.728;8.796;2023-01-29T05:09:05;80.10;;;39.57;;
3068;SDS011;1545;51.728;8.796;2023-01-29T05:11:32;90.90;;;40.83;;
3068;SDS011;1545;51.728;8.796;2023-01-29T05:14:01;95.80;;;43.77;;
3068;SDS011;1545;51.728;8.796;2023-01-29T05:16:31;90.23;;;42.37;;
3068;SDS011;1545;51.728;8.796;2023-01-29T05:19:05;85.37;;;41.33;;
3068;SDS011;1545;51.728;8.796;2023-01-29T05:21:35;87.43;;;41.87;;
3068;SDS011;1545;51.728;8.796;2023-01-29T05:24:07;86.43;;;41.73;;
3068;SDS011;1545;51.728;8.796;2023-01-29T05:26:53;83.63;;;42.17;;
3068;SDS011;1545;51.728;8.796;2023-01-29T05:29:38;92.20;;;41.67;;
3068;SDS011;1545;51.728;8.796;2023-01-29T05:32:09;78.83;;;38.90;;
3068;SDS011;1545;51.728;8.796;2023-01-29T05:34:35;89.27;;;41.23;;
3068;SDS011;1545;51.728;8.796;2023-01-29T05:37:00;89.73;;;42.20;;
3068;SDS011;1545;51.728;8.796;2023-01-29T05:39:26;84.53;;;40.07;;
3068;SDS011;1545;51.728;8.796;2023-01-29T05:41:52;82.60;;;39.83;;
3068;SDS011;1545;51.728;8.796;2023-01-29T05:44:17;85.30;;;41.33;;
3068;SDS011;1545;51.728;8.796;2023-01-29T05:46:44;83.23;;;40.57;;
3068;SDS011;1545;51.728;8.796;2023-01-29T05:49:10;83.33;;;40.20;;
3068;SDS011;1545;51.728;8.796;2023-01-29T05:51:36;85.37;;;41.73;;
3068;SDS011;1545;51.728;8.796;2023-01-29T05:54:01;83.87;;;40.30;;
3068;SDS011;1545;51.728;8.796;2023-01-29T05:56:27;89.13;;;40.33;;
3068;SDS011;1545;51.728;8.796;2023-01-29T05:58:53;82.40;;;40.07;;
3068;SDS011;1545;51.728;8.796;2023-01-29T06:01:20;84.73;;;39.80;;
3068;SDS011;1545;51.728;8.796;2023-01-29T06:03:48;86.20;;;41.03;;
3068;SDS011;1545;51.728;8.796;2023-01-29T06:06:14;87.47;;;39.63;;
3068;SDS011;1545;51.728;8.796;2023-01-29T06:08:40;78.33;;;38.13;;
3068;SDS011;1545;51.728;8.796;2023-01-29T06:11:07;85.83;;;40.90;;
3068;SDS011;1545;51.728;8.796;2023-01-29T06:13:34;79.07;;;38.77;;
3068;SDS011;1545;51.728;8.796;2023-01-29T06:15:59;79.23;;;39.30;;
3068;SDS011;1545;51.728;8.796;2023-01-29T06:18:28;80.37;;;39.50;;
3068;SDS011;1545;51.728;8.796;2023-01-29T06:20:53;85.23;;;39.03;;
3068;SDS011;1545;51.728;8.796;2023-01-29T06:23:18;81.17;;;39.57;;
3068;SDS011;1545;51.728;8.796;2023-01-29T06:25:44;87.63;;;39.63;;
3068;SDS011;1545;51.728;8.796;2023-01-29T06:28:09;81.80;;;37.80;;
3068;SDS011;1545;51.728;8.796;2023-01-29T06:30:35;81.07;;;38.50;;
3068;SDS011;1545;51.728;8.796;2023-01-29T06:33:00;81.87;;;38.90;;
3068;SDS011;1545;51.728;8.796;2023-01-29T06:35:26;81.37;;;37.60;;
3068;SDS011;1545;51.728;8.796;2023-01-29T06:37:53;80.63;;;38.83;;
3068;SDS011;1545;51.728;8.796;2023-01-29T06:40:18;74.93;;;37.13;;
3068;SDS011;1545;51.728;8.796;2023-01-29T06:42:45;81.50;;;38.57;;
3068;SDS011;1545;51.728;8.796;2023-01-29T06:45:10;87.63;;;40.70;;
3068;SDS011;1545;51.728;8.796;2023-01-29T06:47:36;84.30;;;38.77;;
3068;SDS011;1545;51.728;8.796;2023-01-29T06:50:02;83.80;;;40.30;;
3068;SDS011;1545;51.728;8.796;2023-01-29T06:52:28;84.33;;;38.33;;
3068;SDS011;1545;51.728;8.796;2023-01-29T06:54:56;81.00;;;40.30;;
3068;SDS011;1545;51.728;8.796;2023-01-29T06:57:22;83.80;;;40.23;;
3068;SDS011;1545;51.728;8.796;2023-01-29T06:59:47;79.03;;;38.30;;
3068;SDS011;1545;51.728;8.796;2023-01-29T07:02:13;80.93;;;38.87;;
3068;SDS011;1545;51.728;8.796;2023-01-29T07:04:39;83.47;;;39.63;;
3068;SDS011;1545;51.728;8.796;2023-01-29T07:07:06;77.03;;;37.33;;
3068;SDS011;1545;51.728;8.796;2023-01-29T07:09:37;76.53;;;37.77;;
3068;SDS011;1545;51.728;8.796;2023-01-29T07:12:05;76.50;;;38.73;;
3068;SDS011;1545;51.728;8.796;2023-01-29T07:14:32;83.00;;;38.63;;
3068;SDS011;1545;51.728;8.796;2023-01-29T07:16:57;78.63;;;38.27;;
3068;SDS011;1545;51.728;8.796;2023-01-29T07:19:23;74.33;;;38.10;;
3068;SDS011;1545;51.728;8.796;2023-01-29T07:21:48;79.07;;;37.73;;
3068;SDS011;1545;51.728;8.796;2023-01-29T07:24:14;79.47;;;38.57;;
3068;SDS011;1545;51.728;8.796;2023-01-29T07:26:40;81.57;;;37.93;;
3068;SDS011;1545;51.728;8.796;2023-01-29T07:29:05;78.70;;;38.67;;
3068;SDS011;1545;51.728;8.796;2023-01-29T07:31:31;77.00;;;37.80;;
3068;SDS011;1545;51.728;8.796;2023-01-29T07:33:56;77.23;;;38.23;;
3068;SDS011;1545;51.728;8.796;2023-01-29T07:36:22;75.20;;;37.20;;
3068;SDS011;1545;51.728;8.796;2023-01-29T07:38:48;75.60;;;37.73;;
3068;SDS011;1545;51.728;8.796;2023-01-29T07:41:14;71.93;;;36.47;;
3068;SDS011;1545;51.728;8.796;2023-01-29T07:43:40;71.90;;;36.53;;
3068;SDS011;1545;51.728;8.796;2023-01-29T07:46:05;54.40;;;25.83;;
3068;SDS011;1545;51.728;8.796;2023-01-29T07:48:31;69.37;;;35.30;;
3068;SDS011;1545;51.728;8.796;2023-01-29T07:50:57;69.07;;;34.67;;
3068;SDS011;1545;51.728;8.796;2023-01-29T07:53:23;71.17;;;34.03;;
3068;SDS011;1545;51.728;8.796;2023-01-29T07:55:49;62.07;;;33.70;;
3068;SDS011;1545;51.728;8.796;2023-01-29T07:58:15;63.00;;;32.47;;
3068;SDS011;1545;51.728;8.796;2023-01-29T08:00:40;60.83;;;32.03;;
3068;SDS011;1545;51.728;8.796;2023-01-29T08:03:06;59.23;;;31.10;;
3068;SDS011;1545;51.728;8.796;2023-01-29T08:05:35;60.73;;;30.80;;
3068;SDS011;1545;51.728;8.796;2023-01-29T08:08:00;54.73;;;30.13;;
3068;SDS011;1545;51.728;8.796;2023-01-29T08:10:26;57.10;;;28.90;;
3068;SDS011;1545;51.728;8.796;2023-01-29T08:12:53;66.57;;;29.53;;
3068;SDS011;1545;51.728;8.796;2023-01-29T08:15:23;60.37;;;29.80;;
3068;SDS011;1545;51.728;8.796;2023-01-29T08:17:49;56.63;;;28.47;;
3068;SDS011;1545;51.728;8.796;2023-01-29T08:20:14;54.63;;;28.43;;
3068;SDS011;1545;51.728;8.796;2023-01-29T08:22:40;54.50;;;28.47;;
3068;SDS011;1545;51.728;8.796;2023-01-29T08:25:06;55.90;;;27.87;;
3068;SDS011;1545;51.728;8.796;2023-01-29T08:27:32;56.70;;;28.60;;
3068;SDS011;1545;51.728;8.796;2023-01-29T08:29:57;51.27;;;26.83;;
3068;SDS011;1545;51.728;8.796;2023-01-29T08:32:23;51.97;;;26.63;;
3068;SDS011;1545;51.728;8.796;2023-01-29T08:34:48;53.10;;;27.97;;
3068;SDS011;1545;51.728;8.796;2023-01-29T08:37:14;58.10;;;29.07;;
3068;SDS011;1545;51.728;8.796;2023-01-29T08:39:39;53.00;;;27.83;;
3068;SDS011;1545;51.728;8.796;2023-01-29T08:42:05;60.93;;;28.67;;
3068;SDS011;1545;51.728;8.796;2023-01-29T08:44:30;54.27;;;28.30;;
3068;SDS011;1545;51.728;8.796;2023-01-29T08:46:56;51.27;;;27.33;;
3068;SDS011;1545;51.728;8.796;2023-01-29T08:49:21;52.57;;;27.50;;
3068;SDS011;1545;51.728;8.796;2023-01-29T08:51:47;53.07;;;27.67;;
3068;SDS011;1545;51.728;8.796;2023-01-29T08:54:12;50.90;;;27.70;;
3068;SDS011;1545;51.728;8.796;2023-01-29T08:56:38;50.73;;;26.17;;
3068;SDS011;1545;51.728;8.796;2023-01-29T08:59:03;52.13;;;26.70;;
3068;SDS011;1545;51.728;8.796;2023-01-29T09:01:29;53.57;;;28.10;;
3068;SDS011;1545;51.728;8.796;2023-01-29T09:03:54;50.07;;;26.47;;
3068;SDS011;1545;51.728;8.796;2023-01-29T09:06:20;52.07;;;26.97;;
3068;SDS011;1545;51.728;8.796;2023-01-29T09:08:45;51.50;;;27.13;;
3068;SDS011;1545;51.728;8.796;2023-01-29T09:11:11;49.77;;;26.83;;
3068;SDS011;1545;51.728;8.796;2023-01-29T09:13:37;51.00;;;27.37;;
3068;SDS011;1545;51.728;8.796;2023-01-29T09:16:03;49.90;;;27.30;;
3068;SDS011;1545;51.728;8.796;2023-01-29T09:18:29;56.43;;;27.87;;
3068;SDS011;1545;51.728;8.796;2023-01-29T09:20:55;53.07;;;26.37;;
3068;SDS011;1545;51.728;8.796;2023-01-29T09:23:21;60.60;;;26.97;;
3068;SDS011;1545;51.728;8.796;2023-01-29T09:25:47;53.10;;;27.57;;
3068;SDS011;1545;51.728;8.796;2023-01-29T09:28:13;48.40;;;26.70;;
3068;SDS011;1545;51.728;8.796;2023-01-29T09:30:41;51.20;;;27.47;;
3068;SDS011;1545;51.728;8.796;2023-01-29T09:33:07;50.90;;;27.03;;
3068;SDS011;1545;51.728;8.796;2023-01-29T09:35:32;50.57;;;26.43;;
3068;SDS011;1545;51.728;8.796;2023-01-29T09:37:58;53.27;;;27.37;;
3068;SDS011;1545;51.728;8.796;2023-01-29T09:43:24;49.37;;;26.57;;
3068;SDS011;1545;51.728;8.796;2023-01-29T09:45:55;54.93;;;27.30;;
3068;SDS011;1545;51.728;8.796;2023-01-29T09:48:39;48.73;;;25.87;;
3068;SDS011;1545;51.728;8.796;2023-01-29T09:51:06;47.50;;;25.03;;
3068;SDS011;1545;51.728;8.796;2023-01-29T09:53:46;48.03;;;26.23;;
3068;SDS011;1545;51.728;8.796;2023-01-29T09:56:19;48.00;;;25.50;;
3068;SDS011;1545;51.728;8.796;2023-01-29T09:58:46;46.87;;;24.90;;
3068;SDS011;1545;51.728;8.796;2023-01-29T10:07:09;43.17;;;23.67;;
3068;SDS011;1545;51.728;8.796;2023-01-29T10:09:40;48.13;;;24.70;;
3068;SDS011;1545;51.728;8.796;2023-01-29T10:15:02;52.10;;;25.70;;
3068;SDS011;1545;51.728;8.796;2023-01-29T10:17:53;44.10;;;23.93;;
3068;SDS011;1545;51.728;8.796;2023-01-29T10:20:46;47.07;;;24.30;;
3068;SDS011;1545;51.728;8.796;2023-01-29T10:23:21;47.47;;;25.47;;
3068;SDS011;1545;51.728;8.796;2023-01-29T10:25:50;47.07;;;24.23;;
3068;SDS011;1545;51.728;8.796;2023-01-29T10:28:24;46.43;;;23.57;;
3068;SDS011;1545;51.728;8.796;2023-01-29T10:31:12;41.20;;;22.53;;
3068;SDS011;1545;51.728;8.796;2023-01-29T10:33:57;45.63;;;23.63;;
3068;SDS011;1545;51.728;8.796;2023-01-29T10:36:31;44.97;;;23.10;;
3068;SDS011;1545;51.728;8.796;2023-01-29T10:39:02;46.47;;;23.10;;
3068;SDS011;1545;51.728;8.796;2023-01-29T10:58:14;41.67;;;22.50;;
3068;SDS011;1545;51.728;8.796;2023-01-29T11:00:53;47.00;;;22.20;;
3068;SDS011;1545;51.728;8.796;2023-01-29T11:03:21;41.27;;;22.37;;
3068;SDS011;1545;51.728;8.796;2023-01-29T11:09:23;44.00;;;22.57;;
3068;SDS011;1545;51.728;8.796;2023-01-29T11:11:21;41.03;;;21.80;;
3068;SDS011;1545;51.728;8.796;2023-01-29T11:13:59;45.43;;;22.07;;
3068;SDS011;1545;51.728;8.796;2023-01-29T11:16:31;46.43;;;22.27;;
3068;SDS011;1545;51.728;8.796;2023-01-29T11:19:03;41.67;;;22.40;;
3068;SDS011;1545;51.728;8.796;2023-01-29T11:21:29;49.33;;;23.07;;
3068;SDS011;1545;51.728;8.796;2023-01-29T11:24:05;48.77;;;24.10;;
3068;SDS011;1545;51.728;8.796;2023-01-29T11:26:37;44.67;;;22.23;;
3068;SDS011;1545;51.728;8.796;2023-01-29T11:29:16;45.27;;;22.27;;
3068;SDS011;1545;51.728;8.796;2023-01-29T11:31:51;43.60;;;23.07;;
3068;SDS011;1545;51.728;8.796;2023-01-29T11:34:19;41.13;;;22.53;;
3068;SDS011;1545;51.728;8.796;2023-01-29T11:36:50;46.60;;;22.37;;
3068;SDS011;1545;51.728;8.796;2023-01-29T11:39:24;41.53;;;21.87;;
3068;SDS011;1545;51.728;8.796;2023-01-29T11:41:52;41.13;;;21.67;;
3068;SDS011;1545;51.728;8.796;2023-01-29T11:44:28;46.83;;;22.27;;
3068;SDS011;1545;51.728;8.796;2023-01-29T11:52:13;43.97;;;22.37;;
3068;SDS011;1545;51.728;8.796;2023-01-29T11:54:45;44.23;;;21.57;;
3068;SDS011;1545;51.728;8.796;2023-01-29T11:57:25;39.53;;;21.07;;
3068;SDS011;1545;51.728;8.796;2023-01-29T11:59:54;39.47;;;20.77;;
3068;SDS011;1545;51.728;8.796;2023-01-29T12:05:22;45.13;;;20.80;;
3068;SDS011;1545;51.728;8.796;2023-01-29T12:07:51;45.93;;;19.43;;
3068;SDS011;1545;51.728;8.796;2023-01-29T12:10:36;39.03;;;19.27;;
3068;SDS011;1545;51.728;8.796;2023-01-29T12:15:38;36.80;;;19.97;;
3068;SDS011;1545;51.728;8.796;2023-01-29T12:20:57;33.17;;;17.90;;
3068;SDS011;1545;51.728;8.796;2023-01-29T12:23:46;33.47;;;18.60;;
3068;SDS011;1545;51.728;8.796;2023-01-29T12:26:37;35.00;;;18.53;;
3068;SDS011;1545;51.728;8.796;2023-01-29T12:34:47;36.70;;;19.33;;
3068;SDS011;1545;51.728;8.796;2023-01-29T12:37:21;37.97;;;19.60;;
3068;SDS011;1545;51.728;8.796;2023-01-29T12:40:09;40.63;;;19.57;;
3068;SDS011;1545;51.728;8.796;2023-01-29T12:42:39;41.10;;;20.33;;
3068;SDS011;1545;51.728;8.796;2023-01-29T12:45:07;34.80;;;18.77;;
3068;SDS011;1545;51.728;8.796;2023-01-29T12:47:36;36.43;;;19.20;;
3068;SDS011;1545;51.728;8.796;2023-01-29T12:50:16;44.30;;;19.73;;
3068;SDS011;1545;51.728;8.796;2023-01-29T12:53:14;35.27;;;19.03;;
3068;SDS011;1545;51.728;8.796;2023-01-29T12:56:00;39.17;;;19.60;;
3068;SDS011;1545;51.728;8.796;2023-01-29T12:58:34;40.00;;;20.23;;
3068;SDS011;1545;51.728;8.796;2023-01-29T13:01:09;37.93;;;19.40;;
3068;SDS011;1545;51.728;8.796;2023-01-29T13:03:45;35.13;;;18.93;;
3068;SDS011;1545;51.728;8.796;2023-01-29T13:06:37;38.33;;;19.57;;
3068;SDS011;1545;51.728;8.796;2023-01-29T13:09:08;35.97;;;19.03;;
3068;SDS011;1545;51.728;8.796;2023-01-29T13:11:52;38.70;;;19.33;;
3068;SDS011;1545;51.728;8.796;2023-01-29T13:14:31;35.07;;;18.80;;
3068;SDS011;1545;51.728;8.796;2023-01-29T13:17:20;39.50;;;20.20;;
3068;SDS011;1545;51.728;8.796;2023-01-29T13:19:51;41.83;;;19.33;;
3068;SDS011;1545;51.728;8.796;2023-01-29T13:22:21;37.53;;;19.53;;
3068;SDS011;1545;51.728;8.796;2023-01-29T13:24:53;43.37;;;18.77;;
3068;SDS011;1545;51.728;8.796;2023-01-29T13:27:20;34.57;;;18.53;;
3068;SDS011;1545;51.728;8.796;2023-01-29T13:29:48;35.57;;;18.93;;
3068;SDS011;1545;51.728;8.796;2023-01-29T13:32:18;38.90;;;19.77;;
3068;SDS011;1545;51.728;8.796;2023-01-29T13:34:55;37.53;;;19.37;;
3068;SDS011;1545;51.728;8.796;2023-01-29T13:37:25;35.33;;;18.73;;
3068;SDS011;1545;51.728;8.796;2023-01-29T13:39:55;35.83;;;19.23;;
3068;SDS011;1545;51.728;8.796;2023-01-29T13:42:24;38.40;;;19.83;;
3068;SDS011;1545;51.728;8.796;2023-01-29T13:45:00;37.90;;;20.20;;
3068;SDS011;1545;51.728;8.796;2023-01-29T13:47:30;40.93;;;21.13;;
3068;SDS011;1545;51.728;8.796;2023-01-29T13:57:55;42.10;;;22.53;;
3068;SDS011;1545;51.728;8.796;2023-01-29T14:07:53;45.00;;;23.37;;
3068;SDS011;1545;51.728;8.796;2023-01-29T14:10:20;42.27;;;22.90;;
3068;SDS011;1545;51.728;8.796;2023-01-29T14:12:49;45.97;;;22.83;;
3068;SDS011;1545;51.728;8.796;2023-01-29T14:15:20;45.03;;;23.67;;
3068;SDS011;1545;51.728;8.796;2023-01-29T14:20:38;50.10;;;24.57;;
3068;SDS011;1545;51.728;8.796;2023-01-29T14:23:25;46.93;;;24.80;;
3068;SDS011;1545;51.728;8.796;2023-01-29T14:26:02;45.93;;;24.37;;
3068;SDS011;1545;51.728;8.796;2023-01-29T14:28:29;47.40;;;24.53;;
3068;SDS011;1545;51.728;8.796;2023-01-29T14:30:57;50.93;;;25.23;;
3068;SDS011;1545;51.728;8.796;2023-01-29T14:33:27;47.90;;;26.33;;
3068;SDS011;1545;51.728;8.796;2023-01-29T14:35:59;51.27;;;26.17;;
3068;SDS011;1545;51.728;8.796;2023-01-29T14:38:30;50.40;;;26.33;;
3068;SDS011;1545;51.728;8.796;2023-01-29T14:41:04;47.40;;;25.70;;
3068;SDS011;1545;51.728;8.796;2023-01-29T14:43:38;58.17;;;28.97;;
3068;SDS011;1545;51.728;8.796;2023-01-29T14:49:06;50.10;;;27.57;;
3068;SDS011;1545;51.728;8.796;2023-01-29T14:51:33;56.37;;;28.27;;
3068;SDS011;1545;51.728;8.796;2023-01-29T14:54:24;55.93;;;28.53;;
3068;SDS011;1545;51.728;8.796;2023-01-29T14:56:55;54.97;;;29.07;;
3068;SDS011;1545;51.728;8.796;2023-01-29T14:59:33;54.43;;;29.43;;
3068;SDS011;1545;51.728;8.796;2023-01-29T15:02:19;54.73;;;28.53;;
3068;SDS011;1545;51.728;8.796;2023-01-29T15:04:51;53.03;;;28.87;;
3068;SDS011;1545;51.728;8.796;2023-01-29T15:15:33;51.00;;;27.50;;
3068;SDS011;1545;51.728;8.796;2023-01-29T15:21:12;49.83;;;27.57;;
3068;SDS011;1545;51.728;8.796;2023-01-29T15:23:43;48.50;;;25.80;;
3068;SDS011;1545;51.728;8.796;2023-01-29T15:26:18;54.90;;;27.60;;
3068;SDS011;1545;51.728;8.796;2023-01-29T15:28:52;50.47;;;26.77;;
3068;SDS011;1545;51.728;8.796;2023-01-29T15:31:19;55.67;;;26.67;;
3068;SDS011;1545;51.728;8.796;2023-01-29T15:33:45;47.33;;;24.70;;
3068;SDS011;1545;51.728;8.796;2023-01-29T15:36:20;54.70;;;27.47;;
3068;SDS011;1545;51.728;8.796;2023-01-29T15:38:48;47.17;;;26.00;;
3068;SDS011;1545;51.728;8.796;2023-01-29T15:41:28;52.23;;;26.80;;
3068;SDS011;1545;51.728;8.796;2023-01-29T15:43:56;53.67;;;27.83;;
3068;SDS011;1545;51.728;8.796;2023-01-29T15:49:04;49.07;;;26.47;;
3068;SDS011;1545;51.728;8.796;2023-01-29T15:51:31;53.33;;;27.60;;
3068;SDS011;1545;51.728;8.796;2023-01-29T15:54:04;53.17;;;26.57;;
3068;SDS011;1545;51.728;8.796;2023-01-29T15:56:38;47.67;;;26.40;;
3068;SDS011;1545;51.728;8.796;2023-01-29T15:59:04;49.97;;;26.03;;
3068;SDS011;1545;51.728;8.796;2023-01-29T16:01:32;49.20;;;25.83;;
3068;SDS011;1545;51.728;8.796;2023-01-29T16:03:58;54.00;;;25.47;;
3068;SDS011;1545;51.728;8.796;2023-01-29T16:06:29;47.97;;;25.47;;
3068;SDS011;1545;51.728;8.796;2023-01-29T16:09:00;41.30;;;22.40;;
3068;SDS011;1545;51.728;8.796;2023-01-29T16:11:28;46.87;;;22.63;;
3068;SDS011;1545;51.728;8.796;2023-01-29T16:13:54;39.07;;;22.23;;
3068;SDS011;1545;51.728;8.796;2023-01-29T16:16:23;43.23;;;22.43;;
3068;SDS011;1545;51.728;8.796;2023-01-29T16:18:49;49.13;;;23.67;;
3068;SDS011;1545;51.728;8.796;2023-01-29T16:21:20;41.43;;;22.97;;
3068;SDS011;1545;51.728;8.796;2023-01-29T16:23:54;47.03;;;23.03;;
3068;SDS011;1545;51.728;8.796;2023-01-29T16:26:26;50.87;;;25.47;;
3068;SDS011;1545;51.728;8.796;2023-01-29T16:28:54;43.97;;;23.47;;
3068;SDS011;1545;51.728;8.796;2023-01-29T16:31:22;43.97;;;23.73;;
3068;SDS011;1545;51.728;8.796;2023-01-29T16:33:52;51.40;;;25.67;;
3068;SDS011;1545;51.728;8.796;2023-01-29T16:36:25;44.63;;;24.37;;
3068;SDS011;1545;51.728;8.796;2023-01-29T16:39:03;54.33;;;26.17;;
3068;SDS011;1545;51.728;8.796;2023-01-29T16:41:37;50.40;;;26.13;;
3068;SDS011;1545;51.728;8.796;2023-01-29T16:44:03;51.83;;;27.50;;
3068;SDS011;1545;51.728;8.796;2023-01-29T16:47:05;50.80;;;27.30;;
3068;SDS011;1545;51.728;8.796;2023-01-29T16:52:21;61.00;;;30.47;;
3068;SDS011;1545;51.728;8.796;2023-01-29T16:54:49;61.90;;;31.23;;
3068;SDS011;1545;51.728;8.796;2023-01-29T16:57:16;56.37;;;29.47;;
3068;SDS011;1545;51.728;8.796;2023-01-29T16:59:47;59.57;;;29.90;;
3068;SDS011;1545;51.728;8.796;2023-01-29T17:02:32;61.30;;;31.30;;
3068;SDS011;1545;51.728;8.796;2023-01-29T17:05:03;57.70;;;30.13;;
3068;SDS011;1545;51.728;8.796;2023-01-29T17:07:32;60.70;;;30.80;;
3068;SDS011;1545;51.728;8.796;2023-01-29T17:09:58;53.47;;;29.37;;
3068;SDS011;1545;51.728;8.796;2023-01-29T17:12:26;55.00;;;29.67;;
3068;SDS011;1545;51.728;8.796;2023-01-29T17:14:58;59.83;;;30.73;;
3068;SDS011;1545;51.728;8.796;2023-01-29T17:17:31;59.50;;;30.63;;